sensor_id;sensor_type;location;lat;lon;timestamp;temperature;humidity
75466;HTU21D;64049;46.290;44.240;2023-02-15T00:02:26;-0.23;86.47
75466;HTU21D;64049;46.290;44.240;2023-02-15T00:05:08;-0.24;86.48
75466;HTU21D;64049;46.290;44.240;2023-02-15T00:07:34;-0.24;86.45
75466;HTU21D;64049;46.290;44.240;2023-02-15T00:10:00;-0.25;86.45
75466;HTU21D;64049;46.290;44.240;2023-02-15T00:12:26;-0.24;86.45
75466;HTU21D;64049;46.290;44.240;2023-02-15T00:14:53;-0.25;86.46
75466;HTU21D;64049;46.290;44.240;2023-02-15T00:17:20;-0.26;86.43
75466;HTU21D;64049;46.290;44.240;2023-02-15T00:19:46;-0.26;86.46
75466;HTU21D;64049;46.290;44.240;2023-02-15T00:22:12;-0.26;86.43
75466;HTU21D;64049;46.290;44.240;2023-02-15T00:24:52;-0.26;86.44
75466;HTU21D;64049;46.290;44.240;2023-02-15T00:27:18;-0.27;86.43
75466;HTU21D;64049;46.290;44.240;2023-02-15T00:29:44;-0.28;86.42
75466;HTU21D;64049;46.290;44.240;2023-02-15T00:32:10;-0.27;86.39
75466;HTU21D;64049;46.290;44.240;2023-02-15T00:34:37;-0.27;86.41
75466;HTU21D;64049;46.290;44.240;2023-02-15T00:37:03;-0.30;86.41
75466;HTU21D;64049;46.290;44.240;2023-02-15T00:39:29;-0.30;86.41
75466;HTU21D;64049;46.290;44.240;2023-02-15T00:41:55;-0.30;86.38
75466;HTU21D;64049;46.290;44.240;2023-02-15T00:44:22;-0.31;86.40
75466;HTU21D;64049;46.290;44.240;2023-02-15T00:46:48;-0.32;86.35
75466;HTU21D;64049;46.290;44.240;2023-02-15T00:49:14;-0.32;86.35
75466;HTU21D;64049;46.290;44.240;2023-02-15T00:51:39;-0.34;86.37
75466;HTU21D;64049;46.290;44.240;2023-02-15T00:54:06;-0.36;86.37
75466;HTU21D;64049;46.290;44.240;2023-02-15T00:56:32;-0.35;86.33
75466;HTU21D;64049;46.290;44.240;2023-02-15T00:58:57;-0.38;86.35
75466;HTU21D;64049;46.290;44.240;2023-02-15T01:01:23;-0.40;86.35
75466;HTU21D;64049;46.290;44.240;2023-02-15T01:03:59;-0.41;86.35
75466;HTU21D;64049;46.290;44.240;2023-02-15T01:06:28;-0.44;86.36
75466;HTU21D;64049;46.290;44.240;2023-02-15T01:08:54;-0.45;86.34
75466;HTU21D;64049;46.290;44.240;2023-02-15T01:11:21;-0.47;86.35
75466;HTU21D;64049;46.290;44.240;2023-02-15T01:13:51;-0.46;86.35
75466;HTU21D;64049;46.290;44.240;2023-02-15T01:16:17;-0.47;86.31
75466;HTU21D;64049;46.290;44.240;2023-02-15T01:18:43;-0.50;86.35
75466;HTU21D;64049;46.290;44.240;2023-02-15T01:21:12;-0.51;86.32
75466;HTU21D;64049;46.290;44.240;2023-02-15T01:23:42;-0.53;86.32
75466;HTU21D;64049;46.290;44.240;2023-02-15T01:26:08;-0.53;86.27
75466;HTU21D;64049;46.290;44.240;2023-02-15T01:28:35;-0.54;86.28
75466;HTU21D;64049;46.290;44.240;2023-02-15T01:31:08;-0.56;86.29
75466;HTU21D;64049;46.290;44.240;2023-02-15T01:33:37;-0.59;86.29
75466;HTU21D;64049;46.290;44.240;2023-02-15T01:36:04;-0.61;86.29
75466;HTU21D;64049;46.290;44.240;2023-02-15T01:38:31;-0.64;86.22
75466;HTU21D;64049;46.290;44.240;2023-02-15T01:40:58;-0.68;86.19
75466;HTU21D;64049;46.290;44.240;2023-02-15T01:43:48;-0.73;86.20
75466;HTU21D;64049;46.290;44.240;2023-02-15T01:46:16;-0.77;86.21
75466;HTU21D;64049;46.290;44.240;2023-02-15T01:49:07;-0.83;86.16
75466;HTU21D;64049;46.290;44.240;2023-02-15T01:51:32;-0.91;86.18
75466;HTU21D;64049;46.290;44.240;2023-02-15T01:56:39;-1.10;86.19
75466;HTU21D;64049;46.290;44.240;2023-02-15T01:59:11;-1.16;86.19
75466;HTU21D;64049;46.290;44.240;2023-02-15T02:01:41;-1.24;86.22
75466;HTU21D;64049;46.290;44.240;2023-02-15T02:08:13;-1.38;86.31
75466;HTU21D;64049;46.290;44.240;2023-02-15T02:10:39;-1.41;86.35
75466;HTU21D;64049;46.290;44.240;2023-02-15T02:13:23;-1.45;86.39
75466;HTU21D;64049;46.290;44.240;2023-02-15T02:36:02;-1.45;86.51
75466;HTU21D;64049;46.290;44.240;2023-02-15T02:38:54;-1.49;86.48
75466;HTU21D;64049;46.290;44.240;2023-02-15T02:41:38;-1.55;86.43
75466;HTU21D;64049;46.290;44.240;2023-02-15T02:44:23;-1.62;86.41
75466;HTU21D;64049;46.290;44.240;2023-02-15T02:47:09;-1.69;86.43
75466;HTU21D;64049;46.290;44.240;2023-02-15T02:49:39;-1.76;86.41
75466;HTU21D;64049;46.290;44.240;2023-02-15T02:52:53;-1.80;86.43
75466;HTU21D;64049;46.290;44.240;2023-02-15T02:54:54;-1.87;86.37
75466;HTU21D;64049;46.290;44.240;2023-02-15T02:57:23;-1.92;86.38
75466;HTU21D;64049;46.290;44.240;2023-02-15T02:59:50;-1.97;86.42
75466;HTU21D;64049;46.290;44.240;2023-02-15T03:02:23;-1.98;86.45
75466;HTU21D;64049;46.290;44.240;2023-02-15T03:04:57;-1.97;86.45
75466;HTU21D;64049;46.290;44.240;2023-02-15T03:07:31;-1.95;86.48
75466;HTU21D;64049;46.290;44.240;2023-02-15T03:10:00;-1.95;86.46
75466;HTU21D;64049;46.290;44.240;2023-02-15T03:12:36;-1.97;86.43
75466;HTU21D;64049;46.290;44.240;2023-02-15T03:19:03;-2.02;86.36
75466;HTU21D;64049;46.290;44.240;2023-02-15T03:21:35;-2.07;86.35
75466;HTU21D;64049;46.290;44.240;2023-02-15T03:27:19;-2.10;86.43
75466;HTU21D;64049;46.290;44.240;2023-02-15T03:29:49;-2.09;86.42
75466;HTU21D;64049;46.290;44.240;2023-02-15T03:32:17;-2.10;86.37
75466;HTU21D;64049;46.290;44.240;2023-02-15T03:35:03;-2.13;86.41
75466;HTU21D;64049;46.290;44.240;2023-02-15T03:37:40;-2.13;86.39
75466;HTU21D;64049;46.290;44.240;2023-02-15T03:40:30;-2.13;86.36
75466;HTU21D;64049;46.290;44.240;2023-02-15T03:46:12;-2.13;86.41
75466;HTU21D;64049;46.290;44.240;2023-02-15T03:48:45;-2.12;86.44
75466;HTU21D;64049;46.290;44.240;2023-02-15T03:51:17;-2.08;86.39
75466;HTU21D;64049;46.290;44.240;2023-02-15T03:54:17;-2.06;86.40
75466;HTU21D;64049;46.290;44.240;2023-02-15T03:57:03;-2.04;86.42
75466;HTU21D;64049;46.290;44.240;2023-02-15T03:59:48;-2.02;86.41
75466;HTU21D;64049;46.290;44.240;2023-02-15T04:02:57;-2.01;86.35
75466;HTU21D;64049;46.290;44.240;2023-02-15T04:05:25;-2.02;86.36
75466;HTU21D;64049;46.290;44.240;2023-02-15T04:07:51;-2.05;86.29
75466;HTU21D;64049;46.290;44.240;2023-02-15T04:10:17;-2.10;86.25
75466;HTU21D;64049;46.290;44.240;2023-02-15T04:13:01;-2.18;86.22
75466;HTU21D;64049;46.290;44.240;2023-02-15T04:15:27;-2.26;86.19
75466;HTU21D;64049;46.290;44.240;2023-02-15T04:18:11;-2.30;86.20
75466;HTU21D;64049;46.290;44.240;2023-02-15T04:20:37;-2.32;86.19
75466;HTU21D;64049;46.290;44.240;2023-02-15T04:23:21;-2.32;86.24
75466;HTU21D;64049;46.290;44.240;2023-02-15T04:26:06;-2.31;86.23
75466;HTU21D;64049;46.290;44.240;2023-02-15T04:28:31;-2.27;86.25
75466;HTU21D;64049;46.290;44.240;2023-02-15T04:30:57;-2.23;86.22
75466;HTU21D;64049;46.290;44.240;2023-02-15T04:36:11;-2.12;86.24
75466;HTU21D;64049;46.290;44.240;2023-02-15T04:38:37;-2.05;86.23
75466;HTU21D;64049;46.290;44.240;2023-02-15T04:41:03;-2.00;86.21
75466;HTU21D;64049;46.290;44.240;2023-02-15T04:43:28;-1.95;86.22
75466;HTU21D;64049;46.290;44.240;2023-02-15T04:45:54;-1.89;86.21
75466;HTU21D;64049;46.290;44.240;2023-02-15T04:48:39;-1.85;86.22
75466;HTU21D;64049;46.290;44.240;2023-02-15T04:51:06;-1.79;86.18
75466;HTU21D;64049;46.290;44.240;2023-02-15T04:53:33;-1.75;86.17
75466;HTU21D;64049;46.290;44.240;2023-02-15T04:55:59;-1.69;86.20
75466;HTU21D;64049;46.290;44.240;2023-02-15T04:58:25;-1.60;86.22
75466;HTU21D;64049;46.290;44.240;2023-02-15T05:00:51;-1.52;86.21
75466;HTU21D;64049;46.290;44.240;2023-02-15T05:03:20;-1.42;86.20
75466;HTU21D;64049;46.290;44.240;2023-02-15T05:05:46;-1.33;86.17
75466;HTU21D;64049;46.290;44.240;2023-02-15T05:08:12;-1.27;86.12
75466;HTU21D;64049;46.290;44.240;2023-02-15T05:10:37;-1.24;86.04
75466;HTU21D;64049;46.290;44.240;2023-02-15T05:15:59;-1.12;86.03
75466;HTU21D;64049;46.290;44.240;2023-02-15T05:18:25;-1.06;86.00
75466;HTU21D;64049;46.290;44.240;2023-02-15T05:20:51;-1.00;85.91
75466;HTU21D;64049;46.290;44.240;2023-02-15T05:23:17;-0.94;85.87
75466;HTU21D;64049;46.290;44.240;2023-02-15T05:25:47;-0.88;85.77
75466;HTU21D;64049;46.290;44.240;2023-02-15T05:28:32;-0.83;85.71
75466;HTU21D;64049;46.290;44.240;2023-02-15T05:31:11;-0.80;85.64
75466;HTU21D;64049;46.290;44.240;2023-02-15T05:36:42;-0.74;85.48
75466;HTU21D;64049;46.290;44.240;2023-02-15T05:39:08;-0.70;85.49
75466;HTU21D;64049;46.290;44.240;2023-02-15T05:41:37;-0.65;85.45
75466;HTU21D;64049;46.290;44.240;2023-02-15T05:44:04;-0.66;85.37
75466;HTU21D;64049;46.290;44.240;2023-02-15T05:46:30;-0.62;85.35
75466;HTU21D;64049;46.290;44.240;2023-02-15T05:48:56;-0.57;85.32
75466;HTU21D;64049;46.290;44.240;2023-02-15T05:51:21;-0.51;85.29
75466;HTU21D;64049;46.290;44.240;2023-02-15T05:53:48;-0.46;85.26
75466;HTU21D;64049;46.290;44.240;2023-02-15T05:56:14;-0.42;85.17
75466;HTU21D;64049;46.290;44.240;2023-02-15T05:58:41;-0.36;85.09
75466;HTU21D;64049;46.290;44.240;2023-02-15T06:01:15;-0.31;84.99
75466;HTU21D;64049;46.290;44.240;2023-02-15T06:03:42;-0.28;84.89
75466;HTU21D;64049;46.290;44.240;2023-02-15T06:06:08;-0.29;84.82
75466;HTU21D;64049;46.290;44.240;2023-02-15T06:08:36;-0.28;84.72
75466;HTU21D;64049;46.290;44.240;2023-02-15T06:11:02;-0.29;84.66
75466;HTU21D;64049;46.290;44.240;2023-02-15T06:13:29;-0.27;84.59
75466;HTU21D;64049;46.290;44.240;2023-02-15T06:15:55;-0.25;84.51
75466;HTU21D;64049;46.290;44.240;2023-02-15T06:18:21;-0.28;84.42
75466;HTU21D;64049;46.290;44.240;2023-02-15T06:20:47;-0.31;84.29
75466;HTU21D;64049;46.290;44.240;2023-02-15T06:23:13;-0.36;84.23
75466;HTU21D;64049;46.290;44.240;2023-02-15T06:25:39;-0.41;84.08
75466;HTU21D;64049;46.290;44.240;2023-02-15T06:28:05;-0.46;84.09
75466;HTU21D;64049;46.290;44.240;2023-02-15T06:30:31;-0.51;84.11
75466;HTU21D;64049;46.290;44.240;2023-02-15T06:32:57;-0.44;84.24
75466;HTU21D;64049;46.290;44.240;2023-02-15T06:35:23;-0.31;84.31
75466;HTU21D;64049;46.290;44.240;2023-02-15T06:37:49;-0.22;84.23
75466;HTU21D;64049;46.290;44.240;2023-02-15T06:40:15;-0.15;84.10
75466;HTU21D;64049;46.290;44.240;2023-02-15T06:42:42;-0.11;84.03
75466;HTU21D;64049;46.290;44.240;2023-02-15T06:45:09;-0.06;84.00
75466;HTU21D;64049;46.290;44.240;2023-02-15T06:47:35;-0.01;84.00
75466;HTU21D;64049;46.290;44.240;2023-02-15T06:50:01;0.02;83.97
75466;HTU21D;64049;46.290;44.240;2023-02-15T06:52:27;0.04;84.00
75466;HTU21D;64049;46.290;44.240;2023-02-15T06:54:55;0.06;84.00
75466;HTU21D;64049;46.290;44.240;2023-02-15T06:57:20;0.06;83.99
75466;HTU21D;64049;46.290;44.240;2023-02-15T06:59:46;0.07;83.95
75466;HTU21D;64049;46.290;44.240;2023-02-15T07:02:12;0.07;83.91
75466;HTU21D;64049;46.290;44.240;2023-02-15T07:04:38;0.06;83.94
75466;HTU21D;64049;46.290;44.240;2023-02-15T07:07:08;0.08;83.89
75466;HTU21D;64049;46.290;44.240;2023-02-15T07:09:34;0.08;83.94
75466;HTU21D;64049;46.290;44.240;2023-02-15T07:12:00;0.09;83.92
75466;HTU21D;64049;46.290;44.240;2023-02-15T07:14:44;0.10;83.84
75466;HTU21D;64049;46.290;44.240;2023-02-15T07:17:10;0.09;83.76
75466;HTU21D;64049;46.290;44.240;2023-02-15T07:19:36;0.09;83.69
75466;HTU21D;64049;46.290;44.240;2023-02-15T07:22:02;0.13;83.63
75466;HTU21D;64049;46.290;44.240;2023-02-15T07:24:30;0.13;83.54
75466;HTU21D;64049;46.290;44.240;2023-02-15T07:26:59;0.13;83.40
75466;HTU21D;64049;46.290;44.240;2023-02-15T07:29:27;0.10;83.13
75466;HTU21D;64049;46.290;44.240;2023-02-15T07:31:53;0.09;82.82
75466;HTU21D;64049;46.290;44.240;2023-02-15T07:34:19;0.10;82.73
75466;HTU21D;64049;46.290;44.240;2023-02-15T07:36:45;0.13;82.74
75466;HTU21D;64049;46.290;44.240;2023-02-15T07:39:11;0.17;82.77
75466;HTU21D;64049;46.290;44.240;2023-02-15T07:41:37;0.17;82.75
75466;HTU21D;64049;46.290;44.240;2023-02-15T07:44:12;0.19;82.75
75466;HTU21D;64049;46.290;44.240;2023-02-15T07:46:41;0.19;82.82
75466;HTU21D;64049;46.290;44.240;2023-02-15T07:49:08;0.22;82.78
75466;HTU21D;64049;46.290;44.240;2023-02-15T07:51:33;0.27;82.90
75466;HTU21D;64049;46.290;44.240;2023-02-15T07:53:59;0.32;82.92
75466;HTU21D;64049;46.290;44.240;2023-02-15T07:56:25;0.34;82.91
75466;HTU21D;64049;46.290;44.240;2023-02-15T07:58:51;0.37;82.97
75466;HTU21D;64049;46.290;44.240;2023-02-15T08:01:23;0.38;82.81
75466;HTU21D;64049;46.290;44.240;2023-02-15T08:03:50;0.43;82.71
75466;HTU21D;64049;46.290;44.240;2023-02-15T08:06:16;0.45;82.40
75466;HTU21D;64049;46.290;44.240;2023-02-15T08:08:43;0.51;82.23
75466;HTU21D;64049;46.290;44.240;2023-02-15T08:11:16;0.54;81.91
75466;HTU21D;64049;46.290;44.240;2023-02-15T08:16:34;0.62;81.33
75466;HTU21D;64049;46.290;44.240;2023-02-15T08:19:05;0.65;81.21
75466;HTU21D;64049;46.290;44.240;2023-02-15T08:21:32;0.68;81.11
75466;HTU21D;64049;46.290;44.240;2023-02-15T08:24:02;0.77;81.13
75466;HTU21D;64049;46.290;44.240;2023-02-15T08:26:29;0.83;81.10
75466;HTU21D;64049;46.290;44.240;2023-02-15T08:28:57;0.89;81.04
75466;HTU21D;64049;46.290;44.240;2023-02-15T08:31:23;0.93;80.95
75466;HTU21D;64049;46.290;44.240;2023-02-15T08:33:51;0.96;80.80
75466;HTU21D;64049;46.290;44.240;2023-02-15T08:36:26;0.97;80.64
75466;HTU21D;64049;46.290;44.240;2023-02-15T08:38:53;0.98;80.53
75466;HTU21D;64049;46.290;44.240;2023-02-15T08:41:22;0.97;80.44
75466;HTU21D;64049;46.290;44.240;2023-02-15T08:43:51;0.97;80.32
75466;HTU21D;64049;46.290;44.240;2023-02-15T08:46:20;0.98;80.22
75466;HTU21D;64049;46.290;44.240;2023-02-15T08:48:46;1.03;79.98
75466;HTU21D;64049;46.290;44.240;2023-02-15T08:51:14;1.01;79.78
75466;HTU21D;64049;46.290;44.240;2023-02-15T08:53:42;0.98;79.77
75466;HTU21D;64049;46.290;44.240;2023-02-15T08:56:08;0.94;79.80
75466;HTU21D;64049;46.290;44.240;2023-02-15T08:58:34;0.92;79.74
75466;HTU21D;64049;46.290;44.240;2023-02-15T09:01:02;0.92;79.62
75466;HTU21D;64049;46.290;44.240;2023-02-15T09:03:33;0.95;79.53
75466;HTU21D;64049;46.290;44.240;2023-02-15T09:06:00;0.99;79.38
75466;HTU21D;64049;46.290;44.240;2023-02-15T09:08:27;1.01;79.01
75466;HTU21D;64049;46.290;44.240;2023-02-15T09:10:53;1.02;78.86
75466;HTU21D;64049;46.290;44.240;2023-02-15T09:13:20;1.05;78.74
75466;HTU21D;64049;46.290;44.240;2023-02-15T09:15:46;1.07;78.61
75466;HTU21D;64049;46.290;44.240;2023-02-15T09:18:12;1.09;78.55
75466;HTU21D;64049;46.290;44.240;2023-02-15T09:20:45;1.10;78.50
75466;HTU21D;64049;46.290;44.240;2023-02-15T09:23:12;1.16;78.43
75466;HTU21D;64049;46.290;44.240;2023-02-15T09:25:37;1.14;78.33
75466;HTU21D;64049;46.290;44.240;2023-02-15T09:28:04;1.16;78.47
75466;HTU21D;64049;46.290;44.240;2023-02-15T09:30:30;1.12;78.46
75466;HTU21D;64049;46.290;44.240;2023-02-15T09:33:01;1.06;78.53
75466;HTU21D;64049;46.290;44.240;2023-02-15T09:35:28;1.12;78.63
75466;HTU21D;64049;46.290;44.240;2023-02-15T09:38:00;1.20;78.43
75466;HTU21D;64049;46.290;44.240;2023-02-15T09:40:31;1.24;78.26
75466;HTU21D;64049;46.290;44.240;2023-02-15T09:43:33;1.26;78.17
75466;HTU21D;64049;46.290;44.240;2023-02-15T09:48:45;1.26;78.19
75466;HTU21D;64049;46.290;44.240;2023-02-15T09:52:15;1.29;78.09
75466;HTU21D;64049;46.290;44.240;2023-02-15T09:54:39;1.39;78.10
75466;HTU21D;64049;46.290;44.240;2023-02-15T09:57:16;1.45;77.93
75466;HTU21D;64049;46.290;44.240;2023-02-15T09:59:57;1.43;77.89
75466;HTU21D;64049;46.290;44.240;2023-02-15T10:19:12;1.73;77.72
75466;HTU21D;64049;46.290;44.240;2023-02-15T10:27:21;1.68;77.17
75466;HTU21D;64049;46.290;44.240;2023-02-15T10:32:27;1.96;77.45
75466;HTU21D;64049;46.290;44.240;2023-02-15T10:40:28;2.00;77.74
75466;HTU21D;64049;46.290;44.240;2023-02-15T10:52:05;1.91;78.85
75466;HTU21D;64049;46.290;44.240;2023-02-15T11:08:20;1.41;79.35
75466;HTU21D;64049;46.290;44.240;2023-02-15T11:11:20;1.52;79.65
75466;HTU21D;64049;46.290;44.240;2023-02-15T11:13:54;1.65;79.34
75466;HTU21D;64049;46.290;44.240;2023-02-15T11:16:33;1.87;78.82
75466;HTU21D;64049;46.290;44.240;2023-02-15T11:19:06;2.12;77.87
75466;HTU21D;64049;46.290;44.240;2023-02-15T11:21:42;2.09;77.48
75466;HTU21D;64049;46.290;44.240;2023-02-15T11:24:17;2.30;77.20
75466;HTU21D;64049;46.290;44.240;2023-02-15T11:26:57;2.51;76.25
75466;HTU21D;64049;46.290;44.240;2023-02-15T11:29:39;2.22;76.30
75466;HTU21D;64049;46.290;44.240;2023-02-15T11:35:10;1.64;76.80
75466;HTU21D;64049;46.290;44.240;2023-02-15T11:37:51;1.54;76.61
75466;HTU21D;64049;46.290;44.240;2023-02-15T11:40:29;1.46;76.63
75466;HTU21D;64049;46.290;44.240;2023-02-15T11:43:13;1.24;76.60
75466;HTU21D;64049;46.290;44.240;2023-02-15T11:45:43;1.21;76.95
75466;HTU21D;64049;46.290;44.240;2023-02-15T11:48:12;1.07;76.88
75466;HTU21D;64049;46.290;44.240;2023-02-15T11:50:39;1.05;77.16
75466;HTU21D;64049;46.290;44.240;2023-02-15T11:53:11;1.08;77.31
75466;HTU21D;64049;46.290;44.240;2023-02-15T11:55:37;1.32;77.12
75466;HTU21D;64049;46.290;44.240;2023-02-15T12:03:50;1.22;76.64
75466;HTU21D;64049;46.290;44.240;2023-02-15T12:06:27;1.19;76.41
75466;HTU21D;64049;46.290;44.240;2023-02-15T12:11:47;0.81;76.59
75466;HTU21D;64049;46.290;44.240;2023-02-15T12:14:16;0.72;76.53
75466;HTU21D;64049;46.290;44.240;2023-02-15T12:16:48;0.51;76.57
75466;HTU21D;64049;46.290;44.240;2023-02-15T12:19:34;0.44;76.82
75466;HTU21D;64049;46.290;44.240;2023-02-15T12:22:03;0.45;76.92
75466;HTU21D;64049;46.290;44.240;2023-02-15T12:24:33;0.46;76.90
75466;HTU21D;64049;46.290;44.240;2023-02-15T12:27:27;0.48;76.76
75466;HTU21D;64049;46.290;44.240;2023-02-15T12:32:56;0.40;76.77
75466;HTU21D;64049;46.290;44.240;2023-02-15T12:37:56;0.32;76.97
75466;HTU21D;64049;46.290;44.240;2023-02-15T12:40:26;0.28;77.09
75466;HTU21D;64049;46.290;44.240;2023-02-15T12:42:53;0.22;76.76
75466;HTU21D;64049;46.290;44.240;2023-02-15T12:45:32;0.19;76.84
75466;HTU21D;64049;46.290;44.240;2023-02-15T12:48:18;0.20;76.83
75466;HTU21D;64049;46.290;44.240;2023-02-15T12:50:48;0.21;76.86
75466;HTU21D;64049;46.290;44.240;2023-02-15T12:58:18;0.09;77.01
75466;HTU21D;64049;46.290;44.240;2023-02-15T13:00:45;-0.03;77.13
75466;HTU21D;64049;46.290;44.240;2023-02-15T13:03:19;-0.19;77.34
75466;HTU21D;64049;46.290;44.240;2023-02-15T13:05:49;-0.23;77.65
75466;HTU21D;64049;46.290;44.240;2023-02-15T13:08:21;-0.32;77.74
75466;HTU21D;64049;46.290;44.240;2023-02-15T13:10:56;-0.41;77.89
75466;HTU21D;64049;46.290;44.240;2023-02-15T13:13:26;-0.49;77.97
75466;HTU21D;64049;46.290;44.240;2023-02-15T13:15:59;-0.90;77.65
75466;HTU21D;64049;46.290;44.240;2023-02-15T13:18:39;-1.19;77.92
75466;HTU21D;64049;46.290;44.240;2023-02-15T13:21:16;-1.35;78.18
75466;HTU21D;64049;46.290;44.240;2023-02-15T13:26:58;-1.56;78.11
75466;HTU21D;64049;46.290;44.240;2023-02-15T13:29:29;-1.65;78.08
75466;HTU21D;64049;46.290;44.240;2023-02-15T13:31:58;-1.70;78.18
75466;HTU21D;64049;46.290;44.240;2023-02-15T13:34:27;-1.68;78.26
75466;HTU21D;64049;46.290;44.240;2023-02-15T13:39:41;-1.78;78.40
75466;HTU21D;64049;46.290;44.240;2023-02-15T13:42:20;-1.79;78.58
75466;HTU21D;64049;46.290;44.240;2023-02-15T13:50:33;-1.87;78.87
75466;HTU21D;64049;46.290;44.240;2023-02-15T14:01:07;-2.14;79.53
75466;HTU21D;64049;46.290;44.240;2023-02-15T14:09:15;-2.45;79.79
75466;HTU21D;64049;46.290;44.240;2023-02-15T14:20:25;-2.64;79.85
75466;HTU21D;64049;46.290;44.240;2023-02-15T14:31:32;-2.96;79.66
75466;HTU21D;64049;46.290;44.240;2023-02-15T14:38:13;-3.12;79.52
75466;HTU21D;64049;46.290;44.240;2023-02-15T14:44:07;-3.28;78.93
75466;HTU21D;64049;46.290;44.240;2023-02-15T14:49:24;-3.36;78.82
75466;HTU21D;64049;46.290;44.240;2023-02-15T14:56:44;-3.41;79.04
75466;HTU21D;64049;46.290;44.240;2023-02-15T14:59:17;-3.43;79.09
75466;HTU21D;64049;46.290;44.240;2023-02-15T15:04:42;-3.45;79.28
75466;HTU21D;64049;46.290;44.240;2023-02-15T15:07:21;-3.46;79.41
75466;HTU21D;64049;46.290;44.240;2023-02-15T15:12:55;-3.45;79.55
75466;HTU21D;64049;46.290;44.240;2023-02-15T15:20:47;-3.48;79.53
75466;HTU21D;64049;46.290;44.240;2023-02-15T15:23:41;-3.51;79.38
75466;HTU21D;64049;46.290;44.240;2023-02-15T15:26:31;-3.53;79.37
75466;HTU21D;64049;46.290;44.240;2023-02-15T15:29:06;-3.54;79.43
75466;HTU21D;64049;46.290;44.240;2023-02-15T15:31:39;-3.56;79.47
75466;HTU21D;64049;46.290;44.240;2023-02-15T15:37:11;-3.57;79.50
75466;HTU21D;64049;46.290;44.240;2023-02-15T15:48:51;-3.70;79.67
75466;HTU21D;64049;46.290;44.240;2023-02-15T15:51:20;-3.71;79.64
75466;HTU21D;64049;46.290;44.240;2023-02-15T15:53:49;-3.75;79.56
75466;HTU21D;64049;46.290;44.240;2023-02-15T15:56:31;-3.76;79.59
75466;HTU21D;64049;46.290;44.240;2023-02-15T15:59:03;-3.81;79.54
75466;HTU21D;64049;46.290;44.240;2023-02-15T16:01:35;-3.85;79.60
75466;HTU21D;64049;46.290;44.240;2023-02-15T16:04:04;-3.91;79.63
75466;HTU21D;64049;46.290;44.240;2023-02-15T16:06:36;-3.95;79.63
75466;HTU21D;64049;46.290;44.240;2023-02-15T16:09:29;-4.04;79.54
75466;HTU21D;64049;46.290;44.240;2023-02-15T16:11:59;-4.12;79.50
75466;HTU21D;64049;46.290;44.240;2023-02-15T16:14:38;-4.20;79.36
75466;HTU21D;64049;46.290;44.240;2023-02-15T16:17:08;-4.28;79.11
75466;HTU21D;64049;46.290;44.240;2023-02-15T16:19:41;-4.36;78.95
75466;HTU21D;64049;46.290;44.240;2023-02-15T16:22:24;-4.40;78.85
75466;HTU21D;64049;46.290;44.240;2023-02-15T16:27:38;-4.49;78.79
75466;HTU21D;64049;46.290;44.240;2023-02-15T16:30:32;-4.52;78.83
75466;HTU21D;64049;46.290;44.240;2023-02-15T16:35:30;-4.59;78.86
75466;HTU21D;64049;46.290;44.240;2023-02-15T16:37:56;-4.65;78.80
75466;HTU21D;64049;46.290;44.240;2023-02-15T16:42:50;-4.72;78.73
75466;HTU21D;64049;46.290;44.240;2023-02-15T16:45:19;-4.76;78.75
75466;HTU21D;64049;46.290;44.240;2023-02-15T16:47:50;-4.79;78.69
75466;HTU21D;64049;46.290;44.240;2023-02-15T16:50:20;-4.81;78.61
75466;HTU21D;64049;46.290;44.240;2023-02-15T16:52:49;-4.87;78.46
75466;HTU21D;64049;46.290;44.240;2023-02-15T16:55:26;-4.95;78.29
75466;HTU21D;64049;46.290;44.240;2023-02-15T16:58:04;-4.97;78.29
75466;HTU21D;64049;46.290;44.240;2023-02-15T17:00:35;-4.99;78.23
75466;HTU21D;64049;46.290;44.240;2023-02-15T17:03:20;-5.01;78.17
75466;HTU21D;64049;46.290;44.240;2023-02-15T17:05:49;-5.02;78.14
75466;HTU21D;64049;46.290;44.240;2023-02-15T17:11:16;-5.08;78.00
75466;HTU21D;64049;46.290;44.240;2023-02-15T17:19:01;-5.23;77.39
75466;HTU21D;64049;46.290;44.240;2023-02-15T17:21:30;-5.25;77.27
75466;HTU21D;64049;46.290;44.240;2023-02-15T17:24:00;-5.33;77.18
75466;HTU21D;64049;46.290;44.240;2023-02-15T17:26:33;-5.38;77.23
75466;HTU21D;64049;46.290;44.240;2023-02-15T17:31:50;-5.39;77.41
75466;HTU21D;64049;46.290;44.240;2023-02-15T17:37:02;-5.48;77.40
75466;HTU21D;64049;46.290;44.240;2023-02-15T17:39:29;-5.49;77.60
75466;HTU21D;64049;46.290;44.240;2023-02-15T17:41:58;-5.50;77.62
75466;HTU21D;64049;46.290;44.240;2023-02-15T17:44:24;-5.49;77.63
75466;HTU21D;64049;46.290;44.240;2023-02-15T17:46:50;-5.49;77.53
75466;HTU21D;64049;46.290;44.240;2023-02-15T17:49:23;-5.52;77.34
75466;HTU21D;64049;46.290;44.240;2023-02-15T17:51:50;-5.54;77.13
75466;HTU21D;64049;46.290;44.240;2023-02-15T17:54:16;-5.57;76.79
75466;HTU21D;64049;46.290;44.240;2023-02-15T17:57:02;-5.61;76.54
75466;HTU21D;64049;46.290;44.240;2023-02-15T17:59:31;-5.62;76.38
75466;HTU21D;64049;46.290;44.240;2023-02-15T18:01:57;-5.64;76.25
75466;HTU21D;64049;46.290;44.240;2023-02-15T18:04:42;-5.68;76.12
75466;HTU21D;64049;46.290;44.240;2023-02-15T18:07:26;-5.70;76.17
75466;HTU21D;64049;46.290;44.240;2023-02-15T18:10:15;-5.71;76.16
75466;HTU21D;64049;46.290;44.240;2023-02-15T18:13:00;-5.72;76.21
75466;HTU21D;64049;46.290;44.240;2023-02-15T18:15:26;-5.72;76.34
75466;HTU21D;64049;46.290;44.240;2023-02-15T18:17:53;-5.71;76.49
75466;HTU21D;64049;46.290;44.240;2023-02-15T18:20:33;-5.71;76.53
75466;HTU21D;64049;46.290;44.240;2023-02-15T18:23:04;-5.72;76.50
75466;HTU21D;64049;46.290;44.240;2023-02-15T18:25:30;-5.73;76.47
75466;HTU21D;64049;46.290;44.240;2023-02-15T18:27:56;-5.74;76.41
75466;HTU21D;64049;46.290;44.240;2023-02-15T18:30:23;-5.74;76.48
75466;HTU21D;64049;46.290;44.240;2023-02-15T18:32:54;-5.72;76.58
75466;HTU21D;64049;46.290;44.240;2023-02-15T18:35:21;-5.73;76.52
75466;HTU21D;64049;46.290;44.240;2023-02-15T18:37:49;-5.76;76.53
75466;HTU21D;64049;46.290;44.240;2023-02-15T18:40:19;-5.78;76.60
75466;HTU21D;64049;46.290;44.240;2023-02-15T18:42:46;-5.78;76.43
75466;HTU21D;64049;46.290;44.240;2023-02-15T18:45:25;-5.81;76.31
75466;HTU21D;64049;46.290;44.240;2023-02-15T18:47:53;-5.81;76.22
75466;HTU21D;64049;46.290;44.240;2023-02-15T18:50:21;-5.82;76.19
75466;HTU21D;64049;46.290;44.240;2023-02-15T18:53:02;-5.84;76.07
75466;HTU21D;64049;46.290;44.240;2023-02-15T18:55:28;-5.86;75.99
75466;HTU21D;64049;46.290;44.240;2023-02-15T19:01:14;-5.90;75.86
75466;HTU21D;64049;46.290;44.240;2023-02-15T19:03:43;-5.92;75.83
75466;HTU21D;64049;46.290;44.240;2023-02-15T19:06:11;-5.93;75.89
75466;HTU21D;64049;46.290;44.240;2023-02-15T19:08:38;-5.92;75.96
75466;HTU21D;64049;46.290;44.240;2023-02-15T19:11:04;-5.93;75.90
75466;HTU21D;64049;46.290;44.240;2023-02-15T19:13:30;-5.96;75.85
75466;HTU21D;64049;46.290;44.240;2023-02-15T19:16:00;-5.98;75.86
75466;HTU21D;64049;46.290;44.240;2023-02-15T19:18:26;-6.00;75.83
75466;HTU21D;64049;46.290;44.240;2023-02-15T19:20:52;-6.03;75.81
75466;HTU21D;64049;46.290;44.240;2023-02-15T19:23:39;-6.07;75.72